Time;durP1;ratioP1;P1;durP2;ratioP2;P2;SDS_P1;SDS_P2;PMS_P1;PMS_P2;Temp;Humidity;BMP_temperature;BMP_pressure;BME280_temperature;BME280_humidity;BME280_pressure;Samples;Min_cycle;Max_cycle;Signal;HPM_P1;HPM_P2
2023/06/28 00:00:44;;;;;;;0.50;0.50;;;;;;;25.31;83.77;99020.84;5071247;28;20317;-63
2023/06/28 00:03:13;;;;;;;0.70;0.70;;;;;;;25.26;83.98;99017.03;5071142;28;20202;-63
2023/06/28 00:05:40;;;;;;;0.60;0.60;;;;;;;25.21;83.81;99014.00;5071132;28;20262;-63
2023/06/28 00:08:08;;;;;;;0.50;0.50;;;;;;;25.16;83.93;99021.50;5071312;28;20204;-63
2023/06/28 00:10:35;;;;;;;0.40;0.40;;;;;;;25.14;83.64;99023.44;5071222;28;20192;-63
2023/06/28 00:13:01;;;;;;;0.80;0.80;;;;;;;25.12;83.62;99018.34;5071186;28;20277;-63
2023/06/28 00:15:28;;;;;;;0.57;0.57;;;;;;;25.11;83.42;99019.31;5071093;28;20250;-63
2023/06/28 00:17:55;;;;;;;0.90;0.90;;;;;;;25.08;83.71;99009.94;5071246;28;20649;-62
2023/06/28 00:20:21;;;;;;;0.37;0.37;;;;;;;25.03;83.99;99016.59;5070987;28;20199;-63
2023/06/28 00:22:49;;;;;;;2.47;0.60;;;;;;;24.96;85.32;99005.88;5071021;28;20253;-62
2023/06/28 00:25:17;;;;;;;0.67;0.50;;;;;;;24.92;85.34;99006.31;5070989;28;20214;-63
2023/06/28 00:27:44;;;;;;;0.50;0.50;;;;;;;24.90;85.11;99003.84;5070875;28;20638;-62
2023/06/28 00:30:11;;;;;;;0.63;0.63;;;;;;;24.87;85.55;98996.28;5071019;28;20254;-62
2023/06/28 00:32:38;;;;;;;0.50;0.50;;;;;;;24.86;85.40;99004.28;5069463;28;20215;-63
2023/06/28 00:35:05;;;;;;;0.63;0.60;;;;;;;24.84;85.10;98999.19;5071051;28;20200;-62
2023/06/28 00:37:32;;;;;;;0.57;0.57;;;;;;;24.78;85.10;98980.56;5070760;28;20199;-62
2023/06/28 00:39:59;;;;;;;0.53;0.53;;;;;;;24.81;84.81;98999.44;5071035;28;20283;-63
2023/06/28 00:42:27;;;;;;;4.93;0.73;;;;;;;24.81;84.28;99006.47;5070935;28;20687;-63
2023/06/28 00:44:54;;;;;;;0.67;0.67;;;;;;;24.76;83.79;99000.81;5070980;28;20200;-62
2023/06/28 00:47:22;;;;;;;1.00;0.80;;;;;;;24.66;84.14;98993.00;5070827;28;20192;-62
2023/06/28 00:49:50;;;;;;;1.50;0.60;;;;;;;24.50;84.98;98995.41;5070628;28;20207;-63
2023/06/28 00:52:17;;;;;;;0.60;0.60;;;;;;;24.41;85.90;98996.28;5070653;28;20215;-62
2023/06/28 00:54:45;;;;;;;1.07;0.53;;;;;;;24.40;86.45;98986.78;5069371;28;20204;-62
2023/06/28 00:57:12;;;;;;;0.30;0.30;;;;;;;24.37;87.23;98998.38;5070734;28;20196;-62
2023/06/28 00:59:41;;;;;;;0.40;0.40;;;;;;;24.36;87.14;98995.91;5070628;28;20200;-62
2023/06/28 01:02:08;;;;;;;0.60;0.47;;;;;;;24.33;87.48;99001.44;5065537;28;20204;-63
2023/06/28 01:04:35;;;;;;;0.63;0.63;;;;;;;24.22;88.26;98998.97;5070811;28;20269;-62
2023/06/28 01:07:03;;;;;;;1.90;0.80;;;;;;;24.16;88.75;99003.00;5070412;28;20205;-62
2023/06/28 01:09:32;;;;;;;0.40;0.40;;;;;;;24.05;88.87;98993.47;5070590;28;20204;-63
2023/06/28 01:11:59;;;;;;;0.70;0.70;;;;;;;24.08;89.33;98996.75;5070321;28;20250;-62
2023/06/28 01:14:26;;;;;;;0.73;0.73;;;;;;;23.97;90.19;99006.41;5070592;28;20261;-63
2023/06/28 01:16:55;;;;;;;0.90;0.90;;;;;;;23.89;90.92;99002.84;5070590;28;20253;-63
2023/06/28 01:19:24;;;;;;;0.83;0.80;;;;;;;23.81;91.58;99000.94;5070576;28;20299;-62
2023/06/28 01:21:53;;;;;;;0.37;0.37;;;;;;;23.76;91.57;99003.16;5070542;28;20744;-63
2023/06/28 01:24:22;;;;;;;0.53;0.53;;;;;;;23.71;91.27;99009.78;5070549;28;20200;-62
2023/06/28 01:26:52;;;;;;;0.63;0.63;;;;;;;23.58;91.52;99009.22;5070579;28;21539;-62
2023/06/28 01:29:21;;;;;;;0.77;0.77;;;;;;;23.59;90.84;99011.69;5065650;28;20381;-62
2023/06/28 01:31:51;;;;;;;0.60;0.60;;;;;;;23.52;91.40;99027.09;5070282;28;20211;-62
2023/06/28 01:34:17;;;;;;;0.47;0.47;;;;;;;23.49;91.57;99029.16;5072603;28;20669;-62
2023/06/28 01:36:45;;;;;;;0.40;0.40;;;;;;;23.39;91.85;99025.72;5073831;28;20204;-62
2023/06/28 01:39:13;;;;;;;0.60;0.60;;;;;;;23.34;93.01;99020.88;5073858;28;20318;-62
2023/06/28 01:41:42;;;;;;;0.50;0.50;;;;;;;23.32;93.57;99024.59;5073775;28;20204;-62
2023/06/28 01:44:09;;;;;;;0.47;0.47;;;;;;;23.28;94.39;99023.19;5073835;28;20192;-62
2023/06/28 01:46:36;;;;;;;0.50;0.50;;;;;;;23.18;95.81;99011.88;5073895;28;20733;-62
2023/06/28 01:49:03;;;;;;;0.70;0.70;;;;;;;23.14;96.71;99020.97;5073526;28;20200;-62
2023/06/28 01:51:30;;;;;;;0.60;0.60;;;;;;;23.07;97.71;99019.88;5073726;28;20193;-63
2023/06/28 01:53:56;;;;;;;0.50;0.50;;;;;;;23.01;98.11;99015.97;5073332;28;20232;-63
2023/06/28 01:56:23;;;;;;;0.30;0.30;;;;;;;23.01;97.62;99019.41;5073815;28;20200;-62
2023/06/28 01:58:51;;;;;;;0.30;0.30;;;;;;;22.97;98.13;99020.66;5073598;28;20246;-62
2023/06/28 02:01:18;;;;;;;0.43;0.43;;;;;;;22.90;98.98;99019.53;5073486;28;21021;-62
2023/06/28 02:03:45;;;;;;;0.43;0.43;;;;;;;22.92;98.62;99016.78;5073778;28;20257;-62
2023/06/28 02:06:12;;;;;;;0.43;0.43;;;;;;;22.84;99.17;99009.59;5073194;28;20200;-62
2023/06/28 02:08:38;;;;;;;0.40;0.40;;;;;;;22.87;98.75;99011.97;5073698;28;20667;-62
2023/06/28 02:11:05;;;;;;;0.47;0.47;;;;;;;22.79;99.71;99011.78;5073181;28;20203;-62
2023/06/28 02:13:32;;;;;;;0.40;0.40;;;;;;;22.74;99.39;99000.91;5073501;28;20212;-62
2023/06/28 02:16:01;;;;;;;0.40;0.40;;;;;;;22.76;99.89;99012.06;5073096;28;20196;-62
2023/06/28 02:18:28;;;;;;;0.30;0.30;;;;;;;22.74;100.00;99013.16;5067726;28;20257;-62
2023/06/28 02:20:55;;;;;;;0.30;0.30;;;;;;;22.76;99.81;99019.06;5072904;28;20664;-62
2023/06/28 02:23:21;;;;;;;0.50;0.50;;;;;;;22.77;99.80;99016.34;5073098;28;20200;-62
2023/06/28 02:25:48;;;;;;;0.40;0.40;;;;;;;22.68;99.49;99001.41;5073121;28;20200;-62
2023/06/28 02:28:15;;;;;;;0.97;0.97;;;;;;;22.80;99.23;99018.69;5072555;28;20707;-62
2023/06/28 02:30:41;;;;;;;0.67;0.50;;;;;;;22.75;99.17;99013.00;5072904;28;20196;-62
2023/06/28 02:33:11;;;;;;;0.40;0.40;;;;;;;22.71;98.74;99006.41;5072527;28;20208;-62
2023/06/28 02:35:37;;;;;;;0.50;0.50;;;;;;;22.74;99.44;99014.00;5072906;28;20200;-62
2023/06/28 02:38:04;;;;;;;0.70;0.70;;;;;;;22.75;99.34;99020.84;5072912;28;20250;-62
2023/06/28 02:40:31;;;;;;;0.47;0.47;;;;;;;22.72;99.85;99023.72;5072737;28;20660;-62
2023/06/28 02:42:58;;;;;;;1.07;1.07;;;;;;;22.73;100.00;99022.78;5072677;28;20200;-62
2023/06/28 02:45:24;;;;;;;0.30;0.30;;;;;;;22.73;100.00;99019.34;5071119;28;20196;-62
2023/06/28 02:47:51;;;;;;;0.40;0.40;;;;;;;22.71;100.00;99023.88;5072295;28;20200;-62
2023/06/28 02:50:19;;;;;;;0.60;0.60;;;;;;;22.69;100.00;99025.78;5072234;28;20208;-62
2023/06/28 02:52:46;;;;;;;0.40;0.40;;;;;;;22.68;100.00;99030.16;5072569;28;20215;-62
2023/06/28 02:55:13;;;;;;;0.47;0.47;;;;;;;22.65;100.00;99027.78;5072485;28;20656;-62
2023/06/28 02:57:39;;;;;;;0.53;0.53;;;;;;;22.66;99.29;99026.88;5067052;28;20195;-62
2023/06/28 03:00:07;;;;;;;0.50;0.50;;;;;;;22.64;99.29;99028.78;5072252;28;20204;-62
2023/06/28 03:02:34;;;;;;;0.53;0.53;;;;;;;22.56;98.85;99035.59;5071997;28;20664;-62
2023/06/28 03:05:01;;;;;;;0.50;0.50;;;;;;;22.49;100.00;99030.06;5072219;28;20200;-62
2023/06/28 03:07:29;;;;;;;0.60;0.60;;;;;;;22.47;99.96;99026.75;5072047;28;20654;-62
2023/06/28 03:09:56;;;;;;;0.40;0.40;;;;;;;22.40;100.00;99025.63;5072308;28;20634;-62
2023/06/28 03:12:22;;;;;;;0.50;0.50;;;;;;;22.28;100.00;99029.25;5071874;28;20234;-62
2023/06/28 03:14:49;;;;;;;0.60;0.60;;;;;;;22.31;100.00;99031.63;5071933;28;20211;-62
2023/06/28 03:17:19;;;;;;;0.67;0.67;;;;;;;22.28;100.00;99037.94;5071846;28;20196;-62
2023/06/28 03:19:46;;;;;;;0.40;0.40;;;;;;;22.29;100.00;99039.59;5072031;28;20228;-62
2023/06/28 03:22:12;;;;;;;0.50;0.50;;;;;;;22.30;100.00;99040.41;5071795;28;20207;-62
2023/06/28 03:24:40;;;;;;;0.73;0.73;;;;;;;22.25;100.00;99026.91;5071652;28;20195;-62
2023/06/28 03:27:08;;;;;;;0.50;0.50;;;;;;;22.23;100.00;99034.84;5072098;28;20196;-62
2023/06/28 03:29:34;;;;;;;0.43;0.43;;;;;;;22.19;100.00;99038.72;5071367;28;20230;-62
2023/06/28 03:32:01;;;;;;;1.60;0.57;;;;;;;22.22;100.00;99027.16;5071698;28;20257;-62
2023/06/28 03:34:28;;;;;;;0.43;0.43;;;;;;;22.27;100.00;99032.81;5071404;28;20216;-62
2023/06/28 03:36:55;;;;;;;0.47;0.47;;;;;;;22.31;100.00;99029.00;5071583;28;20200;-62
2023/06/28 03:39:21;;;;;;;0.40;0.40;;;;;;;22.33;100.00;99029.69;5071642;28;20257;-62
2023/06/28 03:41:49;;;;;;;0.53;0.53;;;;;;;22.41;100.00;99027.28;5071402;28;20249;-62
2023/06/28 03:44:16;;;;;;;0.37;0.37;;;;;;;22.45;100.00;99036.50;5071376;28;20204;-62
2023/06/28 03:46:43;;;;;;;0.60;0.60;;;;;;;22.44;100.00;99040.06;5070034;28;20200;-62
2023/06/28 03:49:10;;;;;;;0.83;0.83;;;;;;;22.51;100.00;99043.81;5071395;28;20192;-62
2023/06/28 03:51:37;;;;;;;1.13;0.50;;;;;;;22.44;100.00;99029.63;5071298;28;20192;-62
2023/06/28 03:54:04;;;;;;;0.40;0.40;;;;;;;22.56;100.00;99046.03;5071412;28;20238;-62
2023/06/28 03:56:30;;;;;;;0.50;0.50;;;;;;;22.60;100.00;99058.72;5070885;28;20200;-62
2023/06/28 03:58:58;;;;;;;0.60;0.60;;;;;;;22.61;100.00;99057.78;5071273;28;20200;-62
2023/06/28 04:01:25;;;;;;;0.60;0.60;;;;;;;22.54;100.00;99059.25;5071486;28;20702;-62
2023/06/28 04:03:52;;;;;;;0.50;0.50;;;;;;;22.45;100.00;99057.41;5071085;28;20261;-62
2023/06/28 04:06:19;;;;;;;0.40;0.40;;;;;;;22.41;100.00;99058.63;5071228;28;20672;-62
2023/06/28 04:08:47;;;;;;;0.30;0.30;;;;;;;22.41;100.00;99049.00;5070955;28;20622;-62
2023/06/28 04:11:13;;;;;;;0.30;0.30;;;;;;;22.21;100.00;99030.72;5071126;28;20253;-61
2023/06/28 04:13:40;;;;;;;0.37;0.37;;;;;;;22.21;100.00;99054.22;5070808;28;20280;-62
2023/06/28 04:16:08;;;;;;;0.50;0.50;;;;;;;22.13;100.00;99048.84;5071329;28;20196;-62
2023/06/28 04:18:35;;;;;;;0.30;0.30;;;;;;;22.05;100.00;99038.19;5071140;28;20260;-62
2023/06/28 04:21:02;;;;;;;0.57;0.57;;;;;;;22.17;100.00;99050.22;5070967;28;20683;-62
2023/06/28 04:23:28;;;;;;;0.40;0.40;;;;;;;22.27;100.00;99040.66;5070908;28;20211;-62
2023/06/28 04:25:57;;;;;;;0.30;0.30;;;;;;;22.38;100.00;99040.59;5070733;28;20752;-62
2023/06/28 04:28:24;;;;;;;0.30;0.30;;;;;;;22.45;100.00;99044.34;5071002;28;20596;-62
2023/06/28 04:30:51;;;;;;;0.60;0.60;;;;;;;22.49;100.00;99048.34;5070656;28;20207;-62
2023/06/28 04:33:22;;;;;;;0.40;0.40;;;;;;;22.57;100.00;99051.16;5071047;28;20273;-62
2023/06/28 04:35:50;;;;;;;0.40;0.40;;;;;;;22.61;100.00;99051.72;5070749;28;20200;-62
2023/06/28 04:38:19;;;;;;;0.60;0.60;;;;;;;22.68;100.00;99056.31;5070916;28;20261;-62
2023/06/28 04:40:45;;;;;;;0.63;0.63;;;;;;;22.71;99.87;99056.06;5070809;28;20586;-61
2023/06/28 04:43:13;;;;;;;0.50;0.50;;;;;;;22.82;99.21;99052.50;5071012;28;20196;-62
2023/06/28 04:45:40;;;;;;;0.40;0.40;;;;;;;22.94;98.54;99044.44;5070735;28;20196;-62
2023/06/28 04:48:08;;;;;;;4.30;1.07;;;;;;;23.15;97.80;99048.78;5070781;28;20277;-61
2023/06/28 04:50:37;;;;;;;0.40;0.40;;;;;;;23.43;96.00;99058.50;5070849;28;20217;-62
2023/06/28 04:53:04;;;;;;;0.87;0.87;;;;;;;23.72;91.78;99058.50;5069703;28;20196;-62
2023/06/28 04:55:32;;;;;;;0.30;0.30;;;;;;;23.86;90.36;99051.09;5070711;28;20204;-62
2023/06/28 04:58:01;;;;;;;0.50;0.50;;;;;;;24.03;89.42;99055.63;5070787;28;20203;-62
2023/06/28 05:00:28;;;;;;;0.40;0.40;;;;;;;24.16;90.27;99052.75;5070837;28;20200;-62
2023/06/28 05:02:56;;;;;;;1.13;0.77;;;;;;;24.11;87.50;99027.91;5070561;28;20196;-62
2023/06/28 05:05:23;;;;;;;0.60;0.60;;;;;;;24.30;87.30;99054.09;5070404;28;20204;-62
2023/06/28 05:07:52;;;;;;;0.50;0.50;;;;;;;24.38;87.98;99059.47;5070408;28;20210;-62
2023/06/28 05:10:18;;;;;;;0.50;0.50;;;;;;;24.38;85.52;99062.91;5069286;28;20200;-62
2023/06/28 05:12:45;;;;;;;0.47;0.47;;;;;;;24.43;87.39;99062.47;5074498;28;20671;-62
2023/06/28 05:15:12;;;;;;;0.83;0.83;;;;;;;24.48;86.04;99061.09;5074222;28;20672;-62
2023/06/28 05:17:39;;;;;;;0.40;0.40;;;;;;;24.53;85.03;99060.66;5074251;28;20200;-62
2023/06/28 05:20:07;;;;;;;0.60;0.60;;;;;;;24.57;85.12;99062.03;5074138;28;20196;-62
2023/06/28 05:22:34;;;;;;;0.70;0.70;;;;;;;24.66;85.65;99061.16;5074475;28;20331;-63
2023/06/28 05:25:02;;;;;;;0.63;0.63;;;;;;;24.66;83.58;99061.16;5073984;28;20193;-62
2023/06/28 05:27:29;;;;;;;0.87;0.87;;;;;;;24.73;82.41;99066.66;5074197;28;20203;-62
2023/06/28 05:29:55;;;;;;;0.90;0.90;;;;;;;24.81;81.93;99065.00;5073905;28;20254;-62
2023/06/28 05:32:22;;;;;;;1.03;1.03;;;;;;;24.84;82.39;99066.53;5068614;28;20261;-62
2023/06/28 05:34:49;;;;;;;0.67;0.67;;;;;;;24.94;82.88;99068.13;5074188;28;20650;-62
2023/06/28 05:37:17;;;;;;;0.60;0.60;;;;;;;25.06;82.38;99061.72;5074020;28;20196;-62
2023/06/28 05:39:43;;;;;;;0.90;0.90;;;;;;;25.23;84.62;99065.38;5074098;28;20259;-63
2023/06/28 05:42:12;;;;;;;0.80;0.80;;;;;;;25.56;80.93;99062.13;5073447;28;20748;-62
2023/06/28 05:44:38;;;;;;;0.90;0.90;;;;;;;25.73;80.60;99063.13;5073559;28;20203;-62
2023/06/28 05:47:05;;;;;;;2.53;0.80;;;;;;;26.00;78.80;99076.19;5073542;28;20204;-62
2023/06/28 05:49:37;;;;;;;0.83;0.83;;;;;;;26.28;75.13;99070.81;5074021;28;20664;-63
2023/06/28 05:52:05;;;;;;;1.23;1.13;;;;;;;26.48;73.58;99064.38;5073480;28;20208;-62
2023/06/28 05:54:31;;;;;;;1.00;1.00;;;;;;;26.66;75.84;99065.13;5073655;28;20212;-62
2023/06/28 05:56:58;;;;;;;0.93;0.93;;;;;;;26.94;76.89;99066.66;5073559;28;20196;-63
2023/06/28 05:59:26;;;;;;;0.90;0.90;;;;;;;27.14;75.41;99060.13;5073340;28;20196;-62
2023/06/28 06:01:53;;;;;;;0.83;0.83;;;;;;;27.08;68.45;99044.97;5073460;28;20222;-63
2023/06/28 06:04:19;;;;;;;0.60;0.60;;;;;;;27.00;68.56;99060.75;5073246;28;20196;-63
2023/06/28 06:06:46;;;;;;;0.70;0.70;;;;;;;26.78;69.99;99039.41;5073641;28;20749;-62
2023/06/28 06:09:13;;;;;;;0.60;0.60;;;;;;;26.89;70.15;99047.88;5073153;28;20200;-63
2023/06/28 06:11:40;;;;;;;1.13;1.10;;;;;;;27.03;68.60;99039.38;5073334;28;20200;-62
2023/06/28 06:14:07;;;;;;;0.67;0.67;;;;;;;27.27;69.89;99032.56;5073030;28;20216;-63
2023/06/28 06:16:35;;;;;;;1.00;1.00;;;;;;;27.62;69.86;99046.31;5073378;28;20207;-63
2023/06/28 06:19:01;;;;;;;2.00;0.67;;;;;;;27.98;66.57;99046.00;5072761;28;20249;-62
2023/06/28 06:21:28;;;;;;;0.80;0.80;;;;;;;28.17;63.96;99049.13;5073302;28;20257;-62
2023/06/28 06:23:55;;;;;;;1.43;1.03;;;;;;;28.24;62.71;99056.38;5073141;28;20349;-62
2023/06/28 06:26:23;;;;;;;0.90;0.90;;;;;;;28.41;64.53;99058.00;5072918;28;20257;-62
2023/06/28 06:28:50;;;;;;;0.80;0.80;;;;;;;28.43;62.36;99051.59;5072832;28;20224;-63
2023/06/28 06:31:16;;;;;;;0.90;0.90;;;;;;;28.41;63.87;99047.44;5072747;28;20200;-64
2023/06/28 06:33:44;;;;;;;0.50;0.50;;;;;;;28.59;61.84;99042.81;5073024;28;20261;-63
2023/06/28 06:36:11;;;;;;;0.67;0.67;;;;;;;28.67;63.28;99048.06;5072848;28;20204;-63
2023/06/28 06:38:38;;;;;;;0.83;0.83;;;;;;;28.87;61.02;99033.50;5072829;28;20724;-63
2023/06/28 06:41:05;;;;;;;1.05;0.90;;;;;;;29.27;63.10;99047.53;5072715;28;20291;-63
2023/06/28 06:43:31;;;;;;;0.60;0.60;;;;;;;29.57;61.61;99051.94;5072564;28;20200;-63
2023/06/28 06:45:58;;;;;;;1.23;0.80;;;;;;;29.76;61.64;99051.47;5072649;28;20241;-62
2023/06/28 06:48:25;;;;;;;0.88;0.88;;;;;;;29.98;59.23;99044.59;5072486;28;20238;-64
2023/06/28 06:50:53;;;;;;;0.50;0.50;;;;;;;30.17;56.92;99044.91;5072828;28;20668;-63
2023/06/28 06:53:20;;;;;;;0.73;0.73;;;;;;;30.25;61.07;99032.59;5072467;28;20249;-63
2023/06/28 06:55:47;;;;;;;1.17;1.10;;;;;;;30.38;55.53;99046.00;5072726;28;20208;-63
2023/06/28 06:58:14;;;;;;;1.13;1.10;;;;;;;30.35;57.83;99041.09;5072543;28;20277;-63
2023/06/28 07:00:40;;;;;;;0.85;0.70;;;;;;;30.42;57.01;99034.09;5071836;28;20203;-62
2023/06/28 07:03:07;;;;;;;0.90;0.90;;;;;;;30.72;57.42;99033.13;5072244;28;20192;-63
2023/06/28 07:05:34;;;;;;;1.17;1.17;;;;;;;30.90;57.23;99036.19;5072160;28;20668;-64
2023/06/28 07:08:02;;;;;;;1.17;1.17;;;;;;;31.14;55.48;99027.97;5072523;28;20261;-63
2023/06/28 07:10:29;;;;;;;0.90;0.90;;;;;;;31.46;53.36;99032.00;5071671;28;20621;-63
2023/06/28 07:12:55;;;;;;;0.60;0.60;;;;;;;31.51;53.31;99026.16;5070902;28;20199;-63
2023/06/28 07:15:22;;;;;;;1.02;1.02;;;;;;;31.43;52.62;99031.53;5070723;28;20220;-63
2023/06/28 07:17:49;;;;;;;1.80;1.80;;;;;;;31.17;53.12;99030.25;5071900;28;20212;-63
2023/06/28 07:20:15;;;;;;;1.05;0.98;;;;;;;31.33;55.97;99023.06;5071854;28;20253;-62
2023/06/28 07:22:42;;;;;;;0.90;0.90;;;;;;;31.53;54.07;99024.16;5071852;28;20249;-63
2023/06/28 07:25:10;;;;;;;0.82;0.82;;;;;;;31.64;52.64;99026.28;5071686;28;21733;-62
2023/06/28 07:27:37;;;;;;;1.65;0.93;;;;;;;31.73;52.59;99019.81;5068107;28;20725;-63
2023/06/28 07:30:05;;;;;;;1.83;0.98;;;;;;;31.73;55.71;99006.56;5071736;28;20623;-63
2023/06/28 07:32:31;;;;;;;1.33;1.23;;;;;;;32.03;52.59;99013.34;5067409;28;20231;-62
2023/06/28 07:34:58;;;;;;;2.67;0.88;;;;;;;32.30;50.62;99014.41;5071286;28;20212;-63
2023/06/28 07:37:25;;;;;;;0.98;0.98;;;;;;;32.53;49.71;99019.44;5071477;28;20204;-63
2023/06/28 07:39:52;;;;;;;0.80;0.80;;;;;;;32.51;51.56;99005.53;5071422;28;20261;-63
2023/06/28 07:42:21;;;;;;;1.30;1.20;;;;;;;32.81;49.82;99016.75;5071288;28;20227;-63
2023/06/28 07:44:47;;;;;;;1.42;1.33;;;;;;;33.00;48.55;99024.81;5071380;28;20196;-63
2023/06/28 07:47:14;;;;;;;0.90;0.90;;;;;;;33.08;50.11;99014.00;5071377;28;20204;-63
2023/06/28 07:49:41;;;;;;;1.00;1.00;;;;;;;33.10;48.89;99012.00;5071457;28;20214;-63
2023/06/28 07:52:09;;;;;;;0.70;0.70;;;;;;;33.16;48.47;98997.09;5067785;28;20646;-62
2023/06/28 07:54:35;;;;;;;0.90;0.90;;;;;;;33.20;47.30;99003.66;5071019;28;20228;-63
2023/06/28 07:57:02;;;;;;;1.05;0.98;;;;;;;33.30;46.75;99005.91;5070179;28;20668;-63
2023/06/28 07:59:30;;;;;;;1.17;1.17;;;;;;;33.30;46.70;98995.28;5071148;28;20196;-63
2023/06/28 08:01:57;;;;;;;1.10;1.10;;;;;;;33.39;48.08;99007.38;5070969;28;20253;-63
2023/06/28 08:04:24;;;;;;;1.20;0.70;;;;;;;33.39;49.47;98999.38;5070968;28;20253;-62
2023/06/28 08:06:51;;;;;;;0.90;0.90;;;;;;;33.44;50.45;99004.94;5071253;28;20254;-63
2023/06/28 08:09:17;;;;;;;0.98;0.98;;;;;;;33.46;51.51;99000.22;5071019;28;20204;-63
2023/06/28 08:11:44;;;;;;;1.27;1.27;;;;;;;33.69;50.43;99000.69;5071540;28;20618;-63
2023/06/28 08:14:11;;;;;;;0.95;0.95;;;;;;;33.76;47.31;98991.72;5070930;28;20257;-63
2023/06/28 08:16:39;;;;;;;2.75;0.93;;;;;;;33.83;47.04;98994.34;5071554;28;20192;-63
2023/06/28 08:19:05;;;;;;;0.80;0.80;;;;;;;33.95;47.13;98984.75;5070940;28;20203;-63
2023/06/28 08:21:32;;;;;;;6.18;0.88;;;;;;;33.78;46.67;98988.84;5071148;28;20621;-63
2023/06/28 08:23:59;;;;;;;0.80;0.80;;;;;;;33.91;47.61;98986.16;5070946;28;20254;-63
2023/06/28 08:26:26;;;;;;;1.02;1.00;;;;;;;33.90;46.60;98991.69;5070685;28;20221;-63
2023/06/28 08:28:52;;;;;;;1.08;0.98;;;;;;;33.78;47.88;98986.19;5070729;28;20607;-63
2023/06/28 08:31:20;;;;;;;0.93;0.93;;;;;;;33.89;45.27;98984.75;5071466;28;20192;-63
2023/06/28 08:33:48;;;;;;;1.20;1.05;;;;;;;33.86;48.15;98975.34;5070874;28;20199;-63
2023/06/28 08:36:15;;;;;;;1.38;1.27;;;;;;;33.99;47.11;98972.66;5070950;28;20281;-63
2023/06/28 08:38:42;;;;;;;1.20;1.20;;;;;;;34.23;43.04;98966.72;5070547;28;20192;-64
2023/06/28 08:41:09;;;;;;;0.70;0.70;;;;;;;34.34;42.26;98967.94;5071068;28;20210;-64
2023/06/28 08:43:36;;;;;;;1.25;1.25;;;;;;;34.32;41.83;98963.81;5074050;28;20685;-63
2023/06/28 08:46:04;;;;;;;1.02;1.00;;;;;;;34.45;43.80;98971.75;5075090;28;20196;-63
2023/06/28 08:48:31;;;;;;;1.15;1.15;;;;;;;34.54;43.18;98971.31;5075284;28;20199;-64
2023/06/28 08:51:00;;;;;;;0.75;0.75;;;;;;;34.67;41.66;98967.84;5074718;28;20744;-64
2023/06/28 08:53:29;;;;;;;0.88;0.80;;;;;;;34.67;40.33;98957.22;5074996;28;20203;-64
2023/06/28 08:55:59;;;;;;;1.00;1.00;;;;;;;34.86;41.37;98958.97;5075036;28;20580;-64
2023/06/28 08:58:27;;;;;;;1.05;0.82;;;;;;;34.79;39.09;98955.50;5075090;28;20290;-63
2023/06/28 09:00:53;;;;;;;0.95;0.95;;;;;;;34.72;42.23;98960.03;5074697;28;20261;-64
2023/06/28 09:03:21;;;;;;;1.23;1.13;;;;;;;34.64;41.36;98963.75;5074604;28;20250;-63
2023/06/28 09:05:48;;;;;;;0.73;0.73;;;;;;;34.63;41.47;98956.00;5074784;28;20610;-64
2023/06/28 09:08:18;;;;;;;0.93;0.93;;;;;;;34.81;39.83;98953.44;5074741;28;20196;-63
2023/06/28 09:10:46;;;;;;;1.05;1.05;;;;;;;34.89;39.38;98953.22;5074558;28;20672;-63
2023/06/28 09:13:19;;;;;;;0.98;0.93;;;;;;;34.93;37.20;98957.06;5074828;28;20196;-64
2023/06/28 09:15:46;;;;;;;0.73;0.73;;;;;;;34.95;40.57;98949.69;5074467;28;20277;-64
2023/06/28 09:18:12;;;;;;;0.90;0.90;;;;;;;34.89;36.17;98947.88;5074864;28;20196;-64
2023/06/28 09:20:49;;;;;;;2.92;1.08;;;;;;;34.88;39.95;98951.56;5074424;28;20196;-64
2023/06/28 09:23:23;;;;;;;0.70;0.70;;;;;;;34.94;38.74;98953.38;5071361;28;20200;-64
2023/06/28 09:25:50;;;;;;;0.95;0.95;;;;;;;34.77;39.47;98947.72;5070904;28;20200;-63
2023/06/28 09:28:17;;;;;;;0.80;0.80;;;;;;;34.86;40.25;98953.63;5074174;28;20289;-63
2023/06/28 09:30:43;;;;;;;0.63;0.63;;;;;;;34.73;38.18;98943.03;5074475;28;20253;-63
2023/06/28 09:33:10;;;;;;;1.02;1.00;;;;;;;34.91;39.53;98932.50;5074317;28;20249;-64
2023/06/28 09:35:37;;;;;;;1.90;0.90;;;;;;;34.97;39.21;98942.28;5074372;28;20588;-64
2023/06/28 09:38:08;;;;;;;0.70;0.70;;;;;;;34.84;37.68;98934.38;5074110;28;20192;-64
2023/06/28 09:40:36;;;;;;;0.80;0.80;;;;;;;34.89;42.24;98942.56;5074008;28;20261;-64
2023/06/28 09:43:03;;;;;;;0.85;0.85;;;;;;;34.98;39.22;98943.94;5073805;28;20241;-64
2023/06/28 09:45:32;;;;;;;0.90;0.90;;;;;;;35.17;39.62;98927.03;5073861;28;20196;-63
2023/06/28 09:48:00;;;;;;;2.83;0.82;;;;;;;35.15;38.06;98936.28;5073996;28;20202;-64
2023/06/28 09:50:37;;;;;;;0.65;0.65;;;;;;;35.03;38.29;98936.09;5073796;28;20204;-64
2023/06/28 09:53:08;;;;;;;0.90;0.90;;;;;;;35.05;40.80;98927.91;5073699;28;20195;-64
2023/06/28 09:55:38;;;;;;;0.88;0.88;;;;;;;35.26;38.41;98933.72;5073074;28;20222;-64
2023/06/28 09:58:05;;;;;;;1.08;1.00;;;;;;;35.18;37.83;98931.34;5073545;28;20203;-64
2023/06/28 10:00:33;;;;;;;0.90;0.85;;;;;;;35.13;37.19;98931.16;5073886;28;20200;-64
2023/06/28 10:03:03;;;;;;;0.73;0.73;;;;;;;35.16;40.81;98929.91;5073522;28;20192;-64
2023/06/28 10:05:32;;;;;;;2.33;0.80;;;;;;;35.27;37.76;98921.22;5073750;28;20200;-63
2023/06/28 10:08:04;;;;;;;0.80;0.80;;;;;;;35.37;40.10;98921.56;5073875;28;20261;-64
2023/06/28 10:10:34;;;;;;;0.70;0.70;;;;;;;35.36;41.62;98924.44;5073634;28;20250;-63
2023/06/28 10:13:03;;;;;;;1.10;1.10;;;;;;;35.32;39.08;98920.59;5073885;28;20200;-64
2023/06/28 10:15:35;;;;;;;0.65;0.65;;;;;;;35.48;40.97;98917.38;5073279;28;20216;-64
2023/06/28 10:18:02;;;;;;;1.00;1.00;;;;;;;35.35;37.43;98906.81;5073251;28;20196;-63
2023/06/28 10:20:30;;;;;;;0.80;0.80;;;;;;;35.40;38.89;98898.97;5073519;28;20253;-64
2023/06/28 10:22:58;;;;;;;0.80;0.80;;;;;;;35.47;39.37;98899.75;5073640;28;20579;-64
2023/06/28 10:25:26;;;;;;;1.02;1.02;;;;;;;35.40;39.57;98893.66;5073198;28;20200;-63
2023/06/28 10:27:53;;;;;;;0.65;0.65;;;;;;;35.51;40.59;98884.94;5073216;28;20668;-64
2023/06/28 10:30:22;;;;;;;0.98;0.98;;;;;;;35.60;39.44;98897.81;5073191;28;20200;-63
2023/06/28 10:32:51;;;;;;;0.77;0.77;;;;;;;35.48;38.75;98886.19;5073255;28;20200;-64
2023/06/28 10:35:18;;;;;;;1.02;1.02;;;;;;;35.09;39.62;98873.16;5073016;28;20227;-64
2023/06/28 10:37:45;;;;;;;0.70;0.70;;;;;;;35.02;38.47;98880.38;5073112;28;20572;-63
2023/06/28 10:40:13;;;;;;;0.80;0.80;;;;;;;34.97;40.22;98878.34;5072684;28;20204;-64
2023/06/28 10:42:40;;;;;;;0.70;0.70;;;;;;;35.13;41.69;98872.53;5073194;28;20200;-64
2023/06/28 10:45:09;;;;;;;1.00;0.88;;;;;;;35.19;41.30;98874.31;5073069;28;20200;-64
2023/06/28 10:47:50;;;;;;;0.90;0.90;;;;;;;35.41;38.59;98880.13;5069675;28;20282;-63
2023/06/28 10:50:21;;;;;;;0.80;0.80;;;;;;;35.43;39.58;98878.03;5072633;28;20233;-63
2023/06/28 10:52:49;;;;;;;1.10;1.10;;;;;;;35.33;40.36;98877.69;5072676;28;20200;-64
2023/06/28 10:55:18;;;;;;;1.27;1.27;;;;;;;35.43;38.82;98879.88;5072580;28;20192;-64
2023/06/28 10:57:45;;;;;;;0.82;0.80;;;;;;;35.62;39.12;98877.06;5072868;28;20733;-63
2023/06/28 11:00:49;;;;;;;1.10;1.00;;;;;;;35.81;41.25;98864.56;5072669;28;20254;-64
2023/06/28 11:03:21;;;;;;;1.90;0.90;;;;;;;35.84;38.48;98853.44;5066676;28;20206;-64
2023/06/28 11:05:53;;;;;;;1.20;1.20;;;;;;;36.00;38.66;98866.22;5071504;28;20200;-64
2023/06/28 11:08:21;;;;;;;0.80;0.80;;;;;;;36.12;38.82;98867.16;5072474;28;20620;-64
2023/06/28 11:10:49;;;;;;;0.73;0.73;;;;;;;36.17;37.30;98869.94;5072614;28;20564;-64
2023/06/28 11:13:32;;;;;;;1.27;1.13;;;;;;;36.03;37.69;98863.09;5072068;28;20231;-64
2023/06/28 11:16:07;;;;;;;0.73;0.73;;;;;;;35.86;37.13;98864.75;5072509;28;20247;-63
2023/06/28 11:18:35;;;;;;;0.90;0.90;;;;;;;35.72;37.76;98857.91;5072090;28;20746;-64
2023/06/28 11:21:03;;;;;;;1.15;1.10;;;;;;;35.34;37.39;98859.88;5072372;28;20269;-64
2023/06/28 11:23:36;;;;;;;0.77;0.77;;;;;;;35.34;38.67;98860.69;5071988;28;20200;-64
2023/06/28 11:26:04;;;;;;;1.15;1.13;;;;;;;35.32;39.05;98860.06;5072357;28;20581;-64
2023/06/28 11:28:32;;;;;;;1.08;1.08;;;;;;;35.32;40.42;98854.75;5071639;28;20228;-64
2023/06/28 11:31:13;;;;;;;0.68;0.68;;;;;;;35.15;38.92;98857.16;5071873;28;20200;-64
2023/06/28 11:33:42;;;;;;;0.75;0.75;;;;;;;34.99;39.18;98855.00;5071995;28;20739;-64